createdAt,value
2023-03-02T00:00:00.150Z,67.4
2023-03-02T00:05:00.153Z,67.7
2023-03-02T00:10:00.166Z,68.1
2023-03-02T00:15:00.136Z,68.5
2023-03-02T00:20:00.113Z,68
2023-03-02T00:25:00.171Z,68
2023-03-02T00:30:00.140Z,67.9
2023-03-02T00:35:00.118Z,67.7
2023-03-02T00:40:00.139Z,67.6
2023-03-02T00:45:00.130Z,67.9
2023-03-02T00:50:00.109Z,68.2
2023-03-02T00:55:00.106Z,68.4
2023-03-02T01:00:00.178Z,68.3
2023-03-02T01:05:00.143Z,68.7
2023-03-02T01:10:00.102Z,68.6
2023-03-02T01:15:00.167Z,68.6
2023-03-02T01:20:00.160Z,68.6
2023-03-02T01:25:00.198Z,68.8
2023-03-02T01:30:00.157Z,68.9
2023-03-02T01:35:00.105Z,69.7
2023-03-02T01:40:00.159Z,68.5
2023-03-02T01:45:00.223Z,69.5
2023-03-02T01:50:00.165Z,70.2
2023-03-02T01:55:00.146Z,71.6
2023-03-02T02:00:00.183Z,71.2
2023-03-02T02:05:00.143Z,71.5
2023-03-02T02:10:00.145Z,71.4
2023-03-02T02:15:00.141Z,71.4
2023-03-02T02:20:00.164Z,71.3
2023-03-02T02:25:00.142Z,71.6
2023-03-02T02:30:00.207Z,71.7
2023-03-02T02:35:00.144Z,72.8
2023-03-02T02:40:00.114Z,72.6
2023-03-02T02:45:00.177Z,72.9
2023-03-02T02:50:00.139Z,73
2023-03-02T02:55:00.139Z,73.4
2023-03-02T03:00:00.230Z,73.6
2023-03-02T03:05:00.160Z,73.6
2023-03-02T03:10:00.185Z,73.8
2023-03-02T03:15:00.116Z,74
2023-03-02T03:20:00.110Z,74.1
2023-03-02T03:25:00.140Z,74
2023-03-02T03:30:00.148Z,74
2023-03-02T03:35:00.129Z,74.2
2023-03-02T03:40:00.140Z,74.5
2023-03-02T03:45:00.155Z,74
2023-03-02T03:50:00.123Z,74.5
2023-03-02T03:55:00.149Z,74.4
2023-03-02T04:00:00.167Z,74.6
2023-03-02T04:05:00.136Z,74.8
2023-03-02T04:10:00.115Z,75
2023-03-02T04:15:00.123Z,75.2
2023-03-02T04:20:00.116Z,75.3
2023-03-02T04:25:00.170Z,75.5
2023-03-02T04:30:00.131Z,75.6
2023-03-02T04:35:00.116Z,75.7
2023-03-02T04:40:00.131Z,75.8
2023-03-02T04:45:00.162Z,75.9
2023-03-02T04:50:00.159Z,75.3
2023-03-02T04:55:00.127Z,75.9
2023-03-02T05:00:00.164Z,75.8
2023-03-02T05:05:00.265Z,75.9
2023-03-02T05:10:00.162Z,76.2
2023-03-02T05:15:00.134Z,76.4
2023-03-02T05:20:00.117Z,76.5
2023-03-02T05:25:00.163Z,76.6
2023-03-02T05:30:00.135Z,76.6
2023-03-02T05:35:00.175Z,76.5
2023-03-02T05:40:00.634Z,76.6
2023-03-02T05:45:00.667Z,76.5
2023-03-02T05:50:00.137Z,76.3
2023-03-02T05:55:00.138Z,76.4
2023-03-02T06:00:00.153Z,76.6
2023-03-02T06:05:00.196Z,76.7
2023-03-02T06:10:00.144Z,76.9
2023-03-02T06:15:00.133Z,77.2
2023-03-02T06:20:00.153Z,77.3
2023-03-02T06:25:00.137Z,77.5
2023-03-02T06:30:00.140Z,77.5
2023-03-02T06:35:00.180Z,77.6
2023-03-02T06:40:00.134Z,77.6
2023-03-02T06:45:00.238Z,77.6
2023-03-02T06:50:00.126Z,77.6
2023-03-02T06:55:00.147Z,77.6
2023-03-02T07:00:00.567Z,77.5
2023-03-02T07:05:00.151Z,76.9
2023-03-02T07:10:00.144Z,77.5
2023-03-02T07:15:00.126Z,77
2023-03-02T07:20:00.617Z,80.5
2023-03-02T07:25:00.163Z,83
2023-03-02T07:30:00.140Z,79.9
2023-03-02T07:35:00.153Z,74.3
2023-03-02T07:40:00.869Z,70.4
2023-03-02T07:45:00.137Z,66.9
2023-03-02T07:50:00.122Z,63.8
2023-03-02T07:55:00.144Z,61.4
2023-03-02T08:00:00.155Z,60.5
2023-03-02T08:05:00.243Z,60
2023-03-02T08:10:00.142Z,57.6
2023-03-02T08:15:00.101Z,48.4
2023-03-02T08:20:00.155Z,43.3
2023-03-02T08:25:00.156Z,41.2
2023-03-02T08:30:00.158Z,39.5
2023-03-02T08:35:00.111Z,39.7
2023-03-02T08:40:00.117Z,38.9
2023-03-02T08:45:00.175Z,37.6
2023-03-02T08:50:00.188Z,34
2023-03-02T08:55:01.608Z,34.2
2023-03-02T09:00:00.575Z,34.9
2023-03-02T09:05:00.387Z,34.3
2023-03-02T09:10:00.123Z,33.9
2023-03-02T09:15:00.124Z,33.7
2023-03-02T09:20:00.135Z,33.9
2023-03-02T09:25:00.149Z,33.4
2023-03-02T09:30:00.164Z,33
2023-03-02T09:35:00.145Z,31.6
2023-03-02T09:40:00.162Z,32.7
2023-03-02T09:45:00.192Z,32.8
2023-03-02T09:50:00.094Z,32.5
2023-03-02T09:55:00.579Z,53
2023-03-02T10:00:06.709Z,58.5
2023-03-02T10:05:00.132Z,52.5
2023-03-02T10:10:00.147Z,53.3
2023-03-02T10:15:00.114Z,67
2023-03-02T10:20:00.161Z,70.1
2023-03-02T10:25:00.175Z,78.1
2023-03-02T10:30:00.131Z,70.9
2023-03-02T10:35:00.131Z,62.4
2023-03-02T10:40:00.123Z,85.6
2023-03-02T10:45:00.174Z,74.5
2023-03-02T10:50:00.137Z,90
2023-03-02T10:55:00.104Z,91.8
2023-03-02T11:00:00.149Z,68
2023-03-02T11:05:00.257Z,92.8
2023-03-02T11:10:00.289Z,99.9
2023-03-02T11:15:00.121Z,99.9
2023-03-02T11:20:00.117Z,96.3
2023-03-02T11:25:00.158Z,78.1
2023-03-02T11:30:00.147Z,73.9
2023-03-02T11:35:00.116Z,32.5
2023-03-02T11:40:00.171Z,32.2
2023-03-02T11:45:00.137Z,31
2023-03-02T11:50:00.131Z,90
2023-03-02T11:55:00.124Z,99.9
2023-03-02T12:00:00.184Z,99.9
2023-03-02T12:05:00.242Z,99.9
2023-03-02T12:10:00.137Z,99.9
2023-03-02T12:15:00.101Z,99.5
2023-03-02T12:20:02.105Z,99.9
2023-03-02T12:25:00.133Z,36.4
2023-03-02T12:30:00.118Z,36
2023-03-02T12:35:00.128Z,38.2
2023-03-02T12:40:02.239Z,38.6
2023-03-02T12:45:00.229Z,39.6
2023-03-02T12:50:00.137Z,39.3
2023-03-02T12:55:00.143Z,41.5
2023-03-02T13:00:00.134Z,40.9
2023-03-02T13:05:00.145Z,42.4
2023-03-02T13:10:00.209Z,42.5
2023-03-02T13:15:00.149Z,41.9
2023-03-02T13:20:00.144Z,43.1
2023-03-02T13:25:00.130Z,44.1
2023-03-02T13:30:00.111Z,43.9
2023-03-02T13:35:00.116Z,43.8
2023-03-02T13:40:00.105Z,44
2023-03-02T13:45:00.177Z,44.1
2023-03-02T13:50:00.172Z,44.3
2023-03-02T13:55:00.138Z,43.9
2023-03-02T14:00:00.172Z,45
2023-03-02T14:05:00.247Z,45.7
2023-03-02T14:10:00.148Z,45.7
2023-03-02T14:15:00.226Z,45.8
2023-03-02T14:20:00.137Z,45.6
2023-03-02T14:25:00.133Z,46.2
2023-03-02T14:30:00.140Z,46.7
2023-03-02T14:35:00.102Z,46.9
2023-03-02T14:40:00.144Z,47.6
2023-03-02T14:45:00.129Z,48.2
2023-03-02T14:50:00.112Z,48.6
2023-03-02T14:55:00.135Z,48.9
2023-03-02T15:00:00.201Z,49.3
2023-03-02T15:05:00.167Z,49.5
2023-03-02T15:10:00.129Z,50.2
2023-03-02T15:15:00.109Z,51
2023-03-02T15:20:00.164Z,51.7
2023-03-02T15:25:00.141Z,51.7
2023-03-02T15:30:00.104Z,52.6
2023-03-02T15:35:00.151Z,52.7
2023-03-02T15:40:00.098Z,53.4
2023-03-02T15:45:00.530Z,53.8
2023-03-02T15:50:00.135Z,54.1
2023-03-02T15:55:00.117Z,54.4
2023-03-02T16:00:00.132Z,54.8
2023-03-02T16:05:00.131Z,55.2
2023-03-02T16:10:00.146Z,55.6
2023-03-02T16:15:00.156Z,56.3
2023-03-02T16:20:00.114Z,56
2023-03-02T16:25:00.137Z,57.6
2023-03-02T16:30:00.150Z,58.3
2023-03-02T16:35:00.127Z,59.4
2023-03-02T16:40:00.168Z,60.4
2023-03-02T16:45:00.170Z,60.9
2023-03-02T16:50:00.131Z,61.4
2023-03-02T16:55:00.132Z,62
2023-03-02T17:00:00.141Z,62.7
2023-03-02T17:05:00.147Z,63.6
2023-03-02T17:10:00.115Z,64.7
2023-03-02T17:15:00.100Z,64.7
2023-03-02T17:20:00.121Z,64.9
2023-03-02T17:25:00.148Z,65.3
2023-03-02T17:30:00.117Z,65.5
2023-03-02T17:35:00.117Z,66.1
2023-03-02T17:40:00.138Z,66.9
2023-03-02T17:45:00.145Z,67.5
2023-03-02T17:50:00.122Z,68.3
2023-03-02T17:55:00.120Z,70.1
2023-03-02T18:00:00.227Z,72
2023-03-02T18:05:00.164Z,73.7
2023-03-02T18:10:00.128Z,74.9
2023-03-02T18:15:00.127Z,76.6
2023-03-02T18:20:00.102Z,76.9
2023-03-02T18:25:00.159Z,79
2023-03-02T18:30:00.138Z,79.6
2023-03-02T18:35:00.110Z,80
2023-03-02T18:40:00.137Z,80.5
2023-03-02T18:45:00.142Z,81
2023-03-02T18:50:00.099Z,80.8
2023-03-02T18:55:00.133Z,81.4
2023-03-02T19:00:00.183Z,82
2023-03-02T19:05:00.172Z,82.4
2023-03-02T19:10:00.239Z,82.7
2023-03-02T19:15:00.109Z,83.5
2023-03-02T19:20:00.117Z,84.1
2023-03-02T19:25:00.121Z,83.7
2023-03-02T19:30:00.207Z,83.8
2023-03-02T19:35:00.130Z,83.6
2023-03-02T19:40:00.101Z,84.2
2023-03-02T19:45:00.173Z,84.5
2023-03-02T19:50:00.129Z,84.6
2023-03-02T19:55:00.156Z,84.9
2023-03-02T20:00:00.147Z,85
2023-03-02T20:05:00.126Z,85.4
2023-03-02T20:10:00.118Z,85.8
2023-03-02T20:15:00.137Z,85.9
2023-03-02T20:20:00.144Z,86.1
2023-03-02T20:25:00.172Z,86.3
2023-03-02T20:30:00.113Z,86.5
2023-03-02T20:35:00.104Z,86.9
2023-03-02T20:40:00.165Z,86.5
2023-03-02T20:45:00.186Z,86.7
2023-03-02T20:50:00.116Z,86.8
2023-03-02T20:55:00.123Z,87
2023-03-02T21:00:00.178Z,87.9
2023-03-02T21:05:00.252Z,88.7
2023-03-02T21:10:00.097Z,89.2
2023-03-02T21:15:00.115Z,88.9
2023-03-02T21:20:00.113Z,88.7
2023-03-02T21:25:00.126Z,88.8
2023-03-02T21:30:00.219Z,88.5
2023-03-02T21:35:00.136Z,88.7
2023-03-02T21:40:00.145Z,88.6
2023-03-02T21:45:00.171Z,88.9
2023-03-02T21:50:00.120Z,89.1
2023-03-02T21:55:00.108Z,89.6
2023-03-02T22:00:00.166Z,88.8
2023-03-02T22:05:00.168Z,89.9
2023-03-02T22:10:00.274Z,90
2023-03-02T22:15:00.125Z,90
2023-03-02T22:20:00.169Z,90
2023-03-02T22:25:00.135Z,90
2023-03-02T22:30:00.153Z,90.1
2023-03-02T22:35:00.117Z,90.1
2023-03-02T22:40:00.184Z,90.1
2023-03-02T22:45:00.137Z,90.1
2023-03-02T22:50:00.204Z,90
2023-03-02T22:55:00.147Z,90
2023-03-02T23:00:00.281Z,90
2023-03-02T23:05:00.164Z,90.1
2023-03-02T23:10:00.156Z,90.1
2023-03-02T23:15:00.120Z,90.3
2023-03-02T23:20:00.164Z,90.5
2023-03-02T23:25:00.186Z,90.5
2023-03-02T23:30:00.254Z,90.6
2023-03-02T23:35:00.126Z,90.7
2023-03-02T23:40:00.142Z,90.8
2023-03-02T23:45:00.160Z,90.9
2023-03-02T23:50:00.186Z,90.9
2023-03-02T23:55:00.191Z,90.9
